Time;durP1;ratioP1;P1;durP2;ratioP2;P2;SDS_P1;SDS_P2;PMS_P1;PMS_P2;Temp;Humidity;BMP_temperature;BMP_pressure;BME280_temperature;BME280_humidity;BME280_pressure;Samples;Min_cycle;Max_cycle;Signal;HPM_P1;HPM_P2
2022/12/14 00:00:17;;;;;;;;;;;;;;;-4.53;84.92;98545.63;5086125;28;20417;-66
2022/12/14 00:02:43;;;;;;;;;;;;;;;-4.58;84.96;98540.09;5086175;28;20415;-66
2022/12/14 00:05:10;;;;;;;;;;;;;;;-4.48;85.50;98518.34;5085999;28;19982;-67
2022/12/14 00:07:35;;;;;;;;;;;;;;;-4.52;84.79;98536.63;5086191;28;19963;-66
2022/12/14 00:10:01;;;;;;;;;;;;;;;-4.57;84.74;98545.25;5085542;28;20434;-67
2022/12/14 00:12:27;;;;;;;;;;;;;;;-4.57;84.83;98539.06;5084562;28;19928;-67
2022/12/14 00:14:53;;;;;;;;;;;;;;;-4.59;84.52;98530.47;5085026;28;20421;-67
2022/12/14 00:17:18;;;;;;;;;;;;;;;-4.66;84.36;98524.31;5065915;28;19928;-67
2022/12/14 00:19:44;;;;;;;;;;;;;;;-4.70;84.11;98518.59;5085279;28;19928;-67
2022/12/14 00:22:11;;;;;;;;;;;;;;;-4.76;84.19;98509.56;5086095;28;19952;-66
2022/12/14 00:24:37;;;;;;;;;;;;;;;-4.86;84.18;98511.81;5087283;28;19928;-67
2022/12/14 00:27:03;;;;;;;;;;;;;;;-4.93;84.52;98513.66;5086619;28;19927;-67
2022/12/14 00:29:28;;;;;;;;;;;;;;;-4.92;84.47;98510.78;5084602;28;20019;-67
2022/12/14 00:31:54;;;;;;;;;;;;;;;-4.90;84.52;98508.75;5085368;28;20245;-67
2022/12/14 00:34:20;;;;;;;;;;;;;;;-4.86;84.25;98507.31;5079559;28;19928;-67
2022/12/14 00:36:45;;;;;;;;;;;;;;;-4.81;84.34;98498.69;5085812;28;19974;-67
2022/12/14 00:39:12;;;;;;;;;;;;;;;-4.79;84.08;98504.63;5087937;28;19996;-67
2022/12/14 00:41:38;;;;;;;;;;;;;;;-4.80;84.22;98507.50;5084478;28;20792;-67
2022/12/14 00:44:04;;;;;;;;;;;;;;;-4.80;84.54;98500.31;5081635;28;19928;-67
2022/12/14 00:46:30;;;;;;;;;;;;;;;-4.81;84.51;98493.34;5087063;28;19934;-67
2022/12/14 00:48:55;;;;;;;;;;;;;;;-4.85;84.76;98492.94;5085148;28;20018;-66
2022/12/14 00:51:21;;;;;;;;;;;;;;;-4.80;84.99;98507.50;5086117;28;20346;-67
2022/12/14 00:53:47;;;;;;;;;;;;;;;-4.79;84.94;98487.81;5084973;28;19932;-67
2022/12/14 00:56:15;;;;;;;;;;;;;;;-4.75;85.08;98489.03;5085744;28;20318;-67
2022/12/14 00:58:40;;;;;;;;;;;;;;;-4.70;85.29;98490.03;5084931;28;19985;-67
2022/12/14 01:01:07;;;;;;;;;;;;;;;-4.65;85.13;98477.94;5084733;28;20352;-67
2022/12/14 01:03:33;;;;;;;;;;;;;;;-4.67;84.94;98470.13;5086551;28;19928;-67
2022/12/14 01:05:59;;;;;;;;;;;;;;;-4.72;84.91;98468.09;5083797;28;19973;-67
2022/12/14 01:08:25;;;;;;;;;;;;;;;-4.78;84.56;98460.09;5086642;28;19934;-66
2022/12/14 01:10:50;;;;;;;;;;;;;;;-4.76;84.53;98458.03;5086152;28;19978;-67
2022/12/14 01:13:18;;;;;;;;;;;;;;;-4.77;84.27;98441.22;5085986;28;19928;-67
2022/12/14 01:15:43;;;;;;;;;;;;;;;-4.85;83.89;98438.78;5086548;28;19928;-66
2022/12/14 01:18:09;;;;;;;;;;;;;;;-4.87;83.90;98443.50;5084799;28;20523;-66
2022/12/14 01:20:35;;;;;;;;;;;;;;;-4.95;83.90;98438.38;5085298;28;20343;-68
2022/12/14 01:23:00;;;;;;;;;;;;;;;-4.96;83.97;98440.22;5085005;28;19932;-67
2022/12/14 01:25:26;;;;;;;;;;;;;;;-5.01;83.87;98435.50;5081158;28;19935;-66
2022/12/14 01:27:52;;;;;;;;;;;;;;;-4.99;83.98;98438.81;5085113;28;19981;-67
2022/12/14 01:30:19;;;;;;;;;;;;;;;-4.97;83.78;98425.25;5084950;28;19954;-66
2022/12/14 01:32:45;;;;;;;;;;;;;;;-4.95;83.56;98425.06;5084013;28;20310;-66
2022/12/14 01:35:10;;;;;;;;;;;;;;;-4.99;83.48;98429.97;5082756;28;19977;-66
2022/12/14 01:37:36;;;;;;;;;;;;;;;-5.07;82.83;98435.50;5086167;28;19974;-66
2022/12/14 01:40:02;;;;;;;;;;;;;;;-5.14;83.18;98422.22;5085585;28;19973;-66
2022/12/14 01:42:28;;;;;;;;;;;;;;;-5.15;83.29;98429.38;5048201;28;19981;-66
2022/12/14 01:44:55;;;;;;;;;;;;;;;-5.13;83.52;98445.97;5081512;28;20819;-66
2022/12/14 01:47:32;;;;;;;;;;;;;;;-5.10;83.70;98434.09;5084546;28;20418;-67
2022/12/14 01:50:00;;;;;;;;;;;;;;;-5.07;83.83;98431.00;5084068;28;19928;-67
2022/12/14 01:52:29;;;;;;;;;;;;;;;-5.02;83.88;98423.19;5084287;28;19928;-66
2022/12/14 01:54:57;;;;;;;;;;;;;;;-4.97;83.95;98414.59;5086794;28;20409;-67
2022/12/14 01:57:26;;;;;;;;;;;;;;;-4.89;84.20;98424.22;5082371;28;19935;-66
2022/12/14 01:59:53;;;;;;;;;;;;;;;-4.86;83.96;98418.47;5085516;28;19928;-67
2022/12/14 02:02:20;;;;;;;;;;;;;;;-4.86;83.78;98402.47;5083002;28;19928;-66
2022/12/14 02:04:50;;;;;;;;;;;;;;;-4.91;83.43;98400.44;5083445;28;19954;-66
2022/12/14 02:07:16;;;;;;;;;;;;;;;-5.00;83.01;98394.47;5083994;28;19968;-66
2022/12/14 02:09:43;;;;;;;;;;;;;;;-5.04;82.68;98395.13;5083665;28;19934;-66
2022/12/14 02:12:11;;;;;;;;;;;;;;;-5.06;82.63;98394.53;5081680;28;20140;-67
2022/12/14 02:14:37;;;;;;;;;;;;;;;-5.09;82.86;98403.75;5081489;28;19932;-66
2022/12/14 02:17:03;;;;;;;;;;;;;;;-5.09;82.80;98384.25;5084406;28;19928;-67
2022/12/14 02:19:29;;;;;;;;;;;;;;;-5.10;83.00;98383.44;5083659;28;19954;-65
2022/12/14 02:22:12;;;;;;;;;;;;;;;-5.09;83.46;98384.25;5081288;28;20263;-66
2022/12/14 02:24:54;;;;;;;;;;;;;;;-5.05;83.58;98388.97;5082191;28;19935;-66
2022/12/14 02:27:29;;;;;;;;;;;;;;;-5.05;83.16;98391.63;5114284;27;20267;-66
2022/12/14 02:30:01;;;;;;;;;;;;;;;-5.11;83.29;98379.16;5083151;28;19928;-66
2022/12/14 02:32:38;;;;;;;;;;;;;;;-5.12;83.56;98385.50;5082557;28;19935;-66
2022/12/14 02:35:07;;;;;;;;;;;;;;;-5.16;83.68;98376.25;5085231;28;20043;-66
2022/12/14 02:37:36;;;;;;;;;;;;;;;-5.17;83.58;98379.94;5085877;28;19928;-66
2022/12/14 02:40:11;;;;;;;;;;;;;;;-5.19;83.71;98366.84;5085007;28;19931;-66
2022/12/14 02:42:41;;;;;;;;;;;;;;;-5.24;83.47;98374.63;5082784;28;19928;-66
2022/12/14 02:45:11;;;;;;;;;;;;;;;-5.32;83.42;98380.19;5083275;28;19935;-66
2022/12/14 02:47:39;;;;;;;;;;;;;;;-5.41;83.30;98390.25;5085083;28;20391;-67
2022/12/14 02:50:09;;;;;;;;;;;;;;;-5.42;83.41;98388.59;5083555;28;20368;-66
2022/12/14 02:52:38;;;;;;;;;;;;;;;-5.44;83.42;98388.78;5083131;28;19928;-66
2022/12/14 02:55:06;;;;;;;;;;;;;;;-5.45;83.66;98381.03;5081458;28;19928;-66
2022/12/14 02:57:35;;;;;;;;;;;;;;;-5.42;84.03;98362.75;5079295;28;19935;-66
2022/12/14 03:00:03;;;;;;;;;;;;;;;-5.43;83.98;98357.66;5081803;28;20206;-67
2022/12/14 03:02:33;;;;;;;;;;;;;;;-5.38;84.49;98362.38;5082975;28;19970;-67
2022/12/14 03:04:58;;;;;;;;;;;;;;;-5.38;84.16;98354.38;5081909;28;19967;-66
2022/12/14 03:07:28;;;;;;;;;;;;;;;-5.39;84.42;98339.38;5082397;28;19959;-67
2022/12/14 03:09:55;;;;;;;;;;;;;;;-5.40;84.43;98341.25;5080902;28;19963;-67
2022/12/14 03:12:21;;;;;;;;;;;;;;;-5.34;84.60;98340.41;5081052;28;19928;-67
2022/12/14 03:14:50;;;;;;;;;;;;;;;-5.33;84.59;98334.06;5084413;28;20031;-66
2022/12/14 03:17:19;;;;;;;;;;;;;;;-5.41;84.33;98332.44;5084053;28;19932;-67
2022/12/14 03:19:49;;;;;;;;;;;;;;;-5.51;84.35;98336.53;5084386;28;20447;-69
2022/12/14 03:22:17;;;;;;;;;;;;;;;-5.58;84.34;98336.53;5083543;28;19928;-69
2022/12/14 03:24:45;;;;;;;;;;;;;;;-5.66;84.22;98310.94;5081793;28;19928;-69
2022/12/14 03:27:13;;;;;;;;;;;;;;;-5.57;84.07;98324.84;5085089;28;20442;-69
2022/12/14 03:29:40;;;;;;;;;;;;;;;-5.55;84.00;98320.97;5081307;28;19934;-69
2022/12/14 03:32:09;;;;;;;;;;;;;;;-5.57;83.59;98322.19;5082601;28;20411;-69
2022/12/14 03:34:36;;;;;;;;;;;;;;;-5.64;83.34;98310.75;5083169;28;20454;-69
2022/12/14 03:37:08;;;;;;;;;;;;;;;-5.65;83.17;98317.91;5084188;28;20322;-68
2022/12/14 03:39:35;;;;;;;;;;;;;;;-5.63;83.13;98307.84;5085458;28;20027;-69
2022/12/14 03:42:03;;;;;;;;;;;;;;;-5.60;82.92;98310.13;5083952;28;19932;-69
2022/12/14 03:44:32;;;;;;;;;;;;;;;-5.57;82.97;98301.72;5083201;28;19928;-68
2022/12/14 03:47:05;;;;;;;;;;;;;;;-5.56;82.36;98300.69;5081400;28;20460;-68
2022/12/14 03:49:36;;;;;;;;;;;;;;;-5.56;82.21;98314.00;5062747;28;20036;-69
2022/12/14 03:52:06;;;;;;;;;;;;;;;-5.56;81.85;98319.34;5063752;28;19932;-69
2022/12/14 03:54:41;;;;;;;;;;;;;;;-5.55;81.73;98317.47;5079719;28;19928;-69
2022/12/14 03:57:10;;;;;;;;;;;;;;;-5.51;81.50;98323.22;5083389;28;19935;-68
2022/12/14 03:59:38;;;;;;;;;;;;;;;-5.51;81.44;98320.56;5084966;28;20609;-69
2022/12/14 04:02:07;;;;;;;;;;;;;;;-5.50;81.13;98312.38;5084965;28;19928;-68
2022/12/14 04:04:34;;;;;;;;;;;;;;;-5.55;80.84;98309.47;5081674;28;19928;-69
2022/12/14 04:07:05;;;;;;;;;;;;;;;-5.58;81.02;98310.72;5081303;28;19928;-69
2022/12/14 04:09:33;;;;;;;;;;;;;;;-5.58;81.25;98304.56;5080176;28;19955;-69
2022/12/14 04:20:23;;;;;;;;;;;;;;;-5.53;81.00;98302.13;5088014;28;20344;-69
2022/12/14 04:22:52;;;;;;;;;;;;;;;-5.48;81.26;98299.66;5085633;28;19981;-68
2022/12/14 04:29:54;;;;;;;;;;;;;;;-5.43;81.22;98294.50;5084437;28;20064;-69
2022/12/14 04:30:56;;;;;;;;;;;;;;;-5.47;81.37;98293.28;5084557;28;19928;-69
2022/12/14 04:36:06;;;;;;;;;;;;;;;-5.31;81.73;98299.22;5085761;28;19967;-68
2022/12/14 04:38:33;;;;;;;;;;;;;;;-5.32;81.46;98298.38;5083949;28;19931;-69
2022/12/14 04:41:02;;;;;;;;;;;;;;;-5.36;81.30;98291.03;5086573;28;19927;-69
2022/12/14 04:43:31;;;;;;;;;;;;;;;-5.38;81.31;98301.09;5088482;28;19967;-69
2022/12/14 04:45:58;;;;;;;;;;;;;;;-5.37;81.20;98300.88;5084084;28;20400;-68
2022/12/14 04:48:28;;;;;;;;;;;;;;;-5.41;81.07;98300.44;5083593;28;19934;-68
2022/12/14 04:50:55;;;;;;;;;;;;;;;-5.41;81.30;98304.97;5083513;28;19928;-69
2022/12/14 04:53:22;;;;;;;;;;;;;;;-5.33;81.02;98304.75;5084112;28;19985;-69
2022/12/14 04:55:51;;;;;;;;;;;;;;;-5.29;81.37;98305.97;5083753;28;19934;-68
2022/12/14 04:58:19;;;;;;;;;;;;;;;-5.21;81.29;98310.28;5086388;28;20428;-68
2022/12/14 05:00:52;;;;;;;;;;;;;;;-5.18;81.43;98296.53;5066079;28;19928;-68
2022/12/14 05:03:22;;;;;;;;;;;;;;;-5.18;80.95;98296.53;5087035;28;19963;-69
2022/12/14 05:05:55;;;;;;;;;;;;;;;-5.22;80.85;98292.66;5087140;28;19935;-68
2022/12/14 05:08:24;;;;;;;;;;;;;;;-5.23;80.99;98292.84;5086819;28;20333;-68
2022/12/14 05:10:54;;;;;;;;;;;;;;;-5.19;81.21;98296.72;5086403;28;20399;-68
2022/12/14 05:13:22;;;;;;;;;;;;;;;-5.17;81.31;98294.66;5082406;28;20350;-69
2022/12/14 05:15:50;;;;;;;;;;;;;;;-5.19;81.40;98297.56;5088169;28;20387;-68
2022/12/14 05:18:16;;;;;;;;;;;;;;;-5.18;81.62;98298.34;5085342;28;19939;-68
2022/12/14 05:20:42;;;;;;;;;;;;;;;-5.14;81.45;98291.59;5084371;28;20543;-68
2022/12/14 05:23:08;;;;;;;;;;;;;;;-5.17;81.26;98298.16;5086647;28;19966;-69
2022/12/14 05:25:34;;;;;;;;;;;;;;;-5.12;81.36;98295.66;5084903;28;19932;-69
2022/12/14 05:27:59;;;;;;;;;;;;;;;-5.06;81.53;98282.56;5084661;28;20027;-69
2022/12/14 05:30:25;;;;;;;;;;;;;;;-5.04;81.74;98283.16;5082400;28;20034;-69
2022/12/14 05:32:52;;;;;;;;;;;;;;;-4.97;81.63;98280.47;5084881;28;19957;-69
2022/12/14 05:35:19;;;;;;;;;;;;;;;-4.96;81.51;98282.09;5083323;28;19928;-69
2022/12/14 05:37:44;;;;;;;;;;;;;;;-5.00;81.14;98277.16;5117786;27;19932;-68
2022/12/14 05:40:11;;;;;;;;;;;;;;;-5.01;81.42;98286.19;5084573;28;20030;-66
2022/12/14 05:42:37;;;;;;;;;;;;;;;-4.97;81.54;98283.94;5117448;27;19928;-67
2022/12/14 05:45:03;;;;;;;;;;;;;;;-4.92;81.55;98291.31;5079394;28;19934;-66
2022/12/14 05:47:29;;;;;;;;;;;;;;;-4.91;81.51;98282.28;5083406;28;19935;-66
2022/12/14 05:49:56;;;;;;;;;;;;;;;-4.98;81.16;98282.31;5081080;28;19940;-66
2022/12/14 05:52:23;;;;;;;;;;;;;;;-5.02;81.47;98279.22;5082352;28;19938;-66
2022/12/14 05:54:48;;;;;;;;;;;;;;;-4.97;81.61;98277.81;5083861;28;19928;-66
2022/12/14 05:57:14;;;;;;;;;;;;;;;-4.96;81.49;98277.56;5082497;28;20364;-66
2022/12/14 05:59:40;;;;;;;;;;;;;;;-4.97;81.60;98281.28;5085443;28;19928;-66
2022/12/14 06:02:06;;;;;;;;;;;;;;;-5.00;81.52;98281.69;5082163;28;19928;-66
2022/12/14 06:04:31;;;;;;;;;;;;;;;-4.91;81.58;98287.63;5079912;28;20050;-66
2022/12/14 06:06:59;;;;;;;;;;;;;;;-4.92;81.60;98289.44;5081570;28;19973;-66
2022/12/14 06:09:24;;;;;;;;;;;;;;;-4.87;81.24;98287.00;5084284;28;19935;-67
2022/12/14 06:11:50;;;;;;;;;;;;;;;-4.91;81.07;98291.13;5085846;28;19928;-66
2022/12/14 06:14:19;;;;;;;;;;;;;;;-4.88;81.25;98297.84;5083395;28;19974;-66
2022/12/14 06:16:45;;;;;;;;;;;;;;;-4.86;81.19;98296.63;5083748;28;19935;-67
2022/12/14 06:19:12;;;;;;;;;;;;;;;-4.79;81.00;98293.94;5086572;28;19993;-66
2022/12/14 06:21:39;;;;;;;;;;;;;;;-4.73;81.26;98303.75;5083838;28;20411;-66
2022/12/14 06:24:06;;;;;;;;;;;;;;;-4.69;81.44;98306.81;5083447;28;19954;-66
2022/12/14 06:26:35;;;;;;;;;;;;;;;-4.68;81.13;98302.28;5085251;28;20387;-66
2022/12/14 06:29:01;;;;;;;;;;;;;;;-4.68;80.61;98305.78;5083616;28;19963;-66
2022/12/14 06:31:27;;;;;;;;;;;;;;;-4.67;80.60;98314.63;5081748;28;19971;-66
2022/12/14 06:33:53;;;;;;;;;;;;;;;-4.71;80.77;98314.22;5084836;28;20467;-66
2022/12/14 06:36:22;;;;;;;;;;;;;;;-4.66;80.77;98321.59;5082716;28;20034;-66
2022/12/14 06:38:48;;;;;;;;;;;;;;;-4.58;80.88;98326.66;5084026;28;19928;-66
2022/12/14 06:41:16;;;;;;;;;;;;;;;-4.59;80.70;98331.19;5083572;28;20069;-68
2022/12/14 06:43:41;;;;;;;;;;;;;;;-4.57;80.51;98325.63;5084959;28;19928;-69
2022/12/14 06:46:07;;;;;;;;;;;;;;;-4.49;80.47;98324.56;5083805;28;19985;-69
2022/12/14 06:48:33;;;;;;;;;;;;;;;-4.43;80.01;98319.19;5085661;28;19935;-68
2022/12/14 06:51:00;;;;;;;;;;;;;;;-4.41;79.94;98311.78;5080263;28;19928;-68
2022/12/14 06:53:26;;;;;;;;;;;;;;;-4.38;80.02;98320.41;5044331;28;20485;-68
2022/12/14 06:55:51;;;;;;;;;;;;;;;-4.42;79.81;98314.69;5083793;28;19932;-69
2022/12/14 06:58:19;;;;;;;;;;;;;;;-4.49;80.23;98316.56;5083473;28;20426;-70
2022/12/14 07:00:44;;;;;;;;;;;;;;;-4.43;80.40;98329.06;5081467;28;20445;-66
2022/12/14 07:03:10;;;;;;;;;;;;;;;-4.47;80.38;98336.69;5082805;28;19946;-66
2022/12/14 07:05:38;;;;;;;;;;;;;;;-4.49;80.59;98332.56;5080440;28;19963;-67
2022/12/14 07:08:04;;;;;;;;;;;;;;;-4.47;81.05;98336.69;5086742;28;19928;-68
2022/12/14 07:10:33;;;;;;;;;;;;;;;-4.42;80.99;98344.03;5082861;28;20310;-68
2022/12/14 07:12:59;;;;;;;;;;;;;;;-4.43;81.11;98331.75;5048545;28;19928;-69
2022/12/14 07:15:26;;;;;;;;;;;;;;;-4.42;81.03;98342.19;5083985;28;19981;-69
2022/12/14 07:17:52;;;;;;;;;;;;;;;-4.44;81.28;98354.94;5081514;28;19928;-68
2022/12/14 07:20:17;;;;;;;;;;;;;;;-4.47;81.20;98352.69;5081227;28;19935;-68
2022/12/14 07:22:43;;;;;;;;;;;;;;;-4.44;81.37;98357.59;5081384;28;20006;-67
2022/12/14 07:25:09;;;;;;;;;;;;;;;-4.38;81.50;98358.59;5116671;27;20279;-66
2022/12/14 07:27:35;;;;;;;;;;;;;;;-4.29;81.70;98353.81;5076863;28;19928;-66
2022/12/14 07:30:00;;;;;;;;;;;;;;;-4.27;81.10;98357.09;5076187;28;19935;-67
2022/12/14 07:32:28;;;;;;;;;;;;;;;-4.31;80.85;98356.69;5080111;28;19927;-66
2022/12/14 07:34:54;;;;;;;;;;;;;;;-4.33;81.00;98352.63;5080603;28;19928;-67
2022/12/14 07:37:19;;;;;;;;;;;;;;;-4.30;81.18;98354.88;5078700;28;19981;-66
2022/12/14 07:39:45;;;;;;;;;;;;;;;-4.23;81.17;98360.16;5058043;28;19929;-66
2022/12/14 07:42:11;;;;;;;;;;;;;;;-4.23;81.16;98363.63;5078102;28;20513;-66
2022/12/14 07:44:40;;;;;;;;;;;;;;;-4.16;81.37;98369.78;5077903;28;20380;-66
2022/12/14 07:47:05;;;;;;;;;;;;;;;-4.11;81.07;98377.16;5080181;28;19943;-66
2022/12/14 07:49:32;;;;;;;;;;;;;;;-4.11;81.03;98381.66;5076179;28;19928;-68
2022/12/14 07:51:58;;;;;;;;;;;;;;;-4.15;80.36;98381.25;5078992;28;19934;-68
2022/12/14 07:54:25;;;;;;;;;;;;;;;-4.11;80.11;98381.66;5080386;28;19928;-68
2022/12/14 07:56:50;;;;;;;;;;;;;;;-4.11;79.44;98389.66;5081767;28;20291;-68
2022/12/14 07:59:16;;;;;;;;;;;;;;;-4.04;79.57;98387.81;5082743;28;20355;-69
2022/12/14 08:01:42;;;;;;;;;;;;;;;-4.04;79.02;98393.13;5083997;28;19935;-66
2022/12/14 08:04:09;;;;;;;;;;;;;;;-4.06;79.07;98395.19;5080895;28;20409;-66
2022/12/14 08:06:36;;;;;;;;;;;;;;;-4.02;79.01;98399.88;5085509;28;19945;-66
2022/12/14 08:09:03;;;;;;;;;;;;;;;-4.04;79.07;98391.28;5084338;28;19928;-67
2022/12/14 08:11:29;;;;;;;;;;;;;;;-4.25;79.14;98375.59;4722675;28;10000571;-66
2022/12/14 08:13:55;;;;;;;;;;;;;;;-4.18;79.27;98397.72;5084357;28;19934;-66
2022/12/14 08:16:21;;;;;;;;;;;;;;;-4.11;79.33;98403.84;5086337;28;19928;-68
2022/12/14 08:18:47;;;;;;;;;;;;;;;-4.07;79.17;98405.06;5086130;28;20379;-68
2022/12/14 08:21:19;;;;;;;;;;;;;;;-4.15;79.28;98402.63;5086540;28;19935;-68
2022/12/14 08:23:47;;;;;;;;;;;;;;;-4.20;79.65;98402.44;5087524;28;20383;-68
2022/12/14 08:26:12;;;;;;;;;;;;;;;-4.20;79.92;98407.78;5084715;28;19935;-68
2022/12/14 08:28:38;;;;;;;;;;;;;;;-4.14;79.92;98405.09;5084720;28;19927;-68
2022/12/14 08:31:05;;;;;;;;;;;;;;;-4.16;79.82;98403.66;5089268;28;20318;-69
2022/12/14 08:33:32;;;;;;;;;;;;;;;-4.12;79.99;98410.22;5083716;28;19928;-68
2022/12/14 08:36:03;;;;;;;;;;;;;;;-4.04;80.17;98417.97;5085946;28;19932;-69
2022/12/14 08:38:29;;;;;;;;;;;;;;;-4.03;80.22;98422.28;5083407;28;19935;-68
2022/12/14 08:41:00;;;;;;;;;;;;;;;-4.07;80.02;98412.22;5087197;28;19928;-68
2022/12/14 08:43:25;;;;;;;;;;;;;;;-3.99;80.15;98433.38;5087920;28;19988;-68
2022/12/14 08:45:53;;;;;;;;;;;;;;;-4.02;80.07;98433.81;5087579;28;19936;-68
2022/12/14 08:48:18;;;;;;;;;;;;;;;-4.04;80.10;98428.66;5085288;28;20496;-69
2022/12/14 08:50:44;;;;;;;;;;;;;;;-3.91;79.91;98434.97;5086470;28;19932;-69
2022/12/14 08:53:10;;;;;;;;;;;;;;;-3.94;79.95;98440.75;5084812;28;20383;-68
2022/12/14 08:55:36;;;;;;;;;;;;;;;-3.95;79.89;98445.25;5085395;28;20178;-67
2022/12/14 08:58:03;;;;;;;;;;;;;;;-4.03;79.95;98445.50;5083562;28;19939;-66
2022/12/14 09:00:29;;;;;;;;;;;;;;;-4.04;80.54;98444.69;5083103;28;19967;-67
2022/12/14 09:02:54;;;;;;;;;;;;;;;-4.01;80.56;98446.13;5082236;28;20221;-68
2022/12/14 09:05:20;;;;;;;;;;;;;;;-3.99;80.75;98449.38;5083675;28;19928;-68
2022/12/14 09:07:46;;;;;;;;;;;;;;;-3.93;80.96;98463.75;5084357;28;19958;-68
2022/12/14 09:10:11;;;;;;;;;;;;;;;-3.88;80.70;98469.25;5085194;28;19985;-68
2022/12/14 09:12:38;;;;;;;;;;;;;;;-3.80;80.48;98471.69;5085681;28;20407;-69
2022/12/14 09:15:06;;;;;;;;;;;;;;;-3.77;80.44;98476.59;5085195;28;20307;-68
2022/12/14 09:17:33;;;;;;;;;;;;;;;-3.81;80.36;98478.06;5086312;28;19932;-68
2022/12/14 09:19:59;;;;;;;;;;;;;;;-3.80;80.46;98482.38;5085302;28;19975;-69
2022/12/14 09:22:24;;;;;;;;;;;;;;;-3.82;80.38;98479.09;5086153;28;19971;-66
2022/12/14 09:24:51;;;;;;;;;;;;;;;-3.74;79.87;98496.75;5084101;28;19962;-66
2022/12/14 09:27:17;;;;;;;;;;;;;;;-3.83;79.80;98498.81;5083704;28;19935;-66
2022/12/14 09:29:43;;;;;;;;;;;;;;;-3.89;79.84;98503.19;5084971;28;20014;-67
2022/12/14 09:32:10;;;;;;;;;;;;;;;-3.89;79.87;98510.34;5084356;28;20076;-66
2022/12/14 09:34:36;;;;;;;;;;;;;;;-3.95;79.97;98512.03;5083000;28;19935;-66
2022/12/14 09:37:03;;;;;;;;;;;;;;;-3.99;80.02;98524.97;5084933;28;20314;-66
2022/12/14 09:39:29;;;;;;;;;;;;;;;-3.99;79.88;98532.19;5083967;28;19932;-66
2022/12/14 09:42:00;;;;;;;;;;;;;;;-3.98;79.95;98531.16;5085321;28;20034;-67
2022/12/14 09:44:38;;;;;;;;;;;;;;;-4.06;79.82;98536.72;5084398;28;20354;-66
2022/12/14 09:47:09;;;;;;;;;;;;;;;-4.02;79.98;98543.28;5087583;28;19928;-67
2022/12/14 09:49:40;;;;;;;;;;;;;;;-4.10;79.80;98544.34;5087180;28;19985;-68
2022/12/14 09:52:09;;;;;;;;;;;;;;;-4.18;79.80;98548.06;5086298;28;19928;-68
2022/12/14 09:54:36;;;;;;;;;;;;;;;-4.26;79.54;98566.94;5085516;28;19936;-68
2022/12/14 09:57:06;;;;;;;;;;;;;;;-4.33;79.51;98574.97;5082823;28;19995;-69
2022/12/14 09:59:32;;;;;;;;;;;;;;;-4.34;79.60;98581.34;5082274;28;20158;-68
2022/12/14 10:02:03;;;;;;;;;;;;;;;-4.25;79.74;98581.13;5083596;28;19928;-68
2022/12/14 10:04:35;;;;;;;;;;;;;;;-4.18;79.31;98580.09;5083551;28;19935;-68
2022/12/14 10:07:08;;;;;;;;;;;;;;;-4.18;78.84;98593.44;5082738;28;19928;-68
2022/12/14 10:09:38;;;;;;;;;;;;;;;-4.19;78.03;98590.97;5080365;28;19932;-68
2022/12/14 10:12:09;;;;;;;;;;;;;;;-4.29;77.70;98588.72;5086160;28;19928;-68
2022/12/14 10:14:48;;;;;;;;;;;;;;;-4.31;77.90;98594.25;5084639;28;20300;-68
2022/12/14 10:17:20;;;;;;;;;;;;;;;-4.22;78.08;98605.53;5086460;28;19950;-68
2022/12/14 10:19:52;;;;;;;;;;;;;;;-4.18;77.73;98598.78;5086815;28;20356;-68
2022/12/14 10:22:22;;;;;;;;;;;;;;;-4.07;77.96;98613.34;5082399;28;19928;-68
2022/12/14 10:24:49;;;;;;;;;;;;;;;-3.97;77.81;98617.44;5087097;28;19934;-69
2022/12/14 10:27:19;;;;;;;;;;;;;;;-3.91;77.91;98608.59;5117781;27;19928;-68
2022/12/14 10:29:47;;;;;;;;;;;;;;;-3.82;77.87;98626.03;5085888;28;20039;-69
2022/12/14 10:32:17;;;;;;;;;;;;;;;-3.76;77.75;98627.03;5064627;28;19959;-68
2022/12/14 10:34:44;;;;;;;;;;;;;;;-3.67;77.60;98631.13;5070980;28;20022;-69
2022/12/14 10:37:19;;;;;;;;;;;;;;;-3.63;77.52;98637.69;5085943;28;19963;-69
2022/12/14 10:39:53;;;;;;;;;;;;;;;-3.51;77.28;98648.56;5084095;28;19928;-68
2022/12/14 10:42:23;;;;;;;;;;;;;;;-3.50;77.43;98658.22;5084335;28;20010;-69
2022/12/14 10:44:54;;;;;;;;;;;;;;;-3.56;77.21;98665.22;5081868;28;19928;-69
2022/12/14 10:47:25;;;;;;;;;;;;;;;-3.68;77.75;98660.72;5081635;28;20231;-69
2022/12/14 10:49:55;;;;;;;;;;;;;;;-3.89;79.12;98670.63;5077689;28;20031;-69
2022/12/14 10:52:22;;;;;;;;;;;;;;;-3.85;79.33;98680.69;5091998;28;19928;-68
2022/12/14 10:54:53;;;;;;;;;;;;;;;-3.81;78.76;98675.75;5073132;28;20229;-68
2022/12/14 10:57:20;;;;;;;;;;;;;;;-3.80;78.82;98679.25;4725038;28;10000531;-68
2022/12/14 10:59:46;;;;;;;;;;;;;;;-3.80;79.03;98679.25;5091426;28;19928;-68
2022/12/14 11:02:15;;;;;;;;;;;;;;;-3.73;78.97;98699.56;5077856;28;20015;-68
2022/12/14 11:04:47;;;;;;;;;;;;;;;-3.75;79.08;98706.13;5080167;28;20021;-66
2022/12/14 11:07:14;;;;;;;;;;;;;;;-3.71;79.07;98707.38;5077138;28;19928;-66
2022/12/14 11:09:40;;;;;;;;;;;;;;;-3.61;79.21;98729.16;5077804;28;20035;-66
2022/12/14 11:12:16;;;;;;;;;;;;;;;-3.63;79.33;98717.84;5076333;28;20256;-66
2022/12/14 11:14:50;;;;;;;;;;;;;;;-3.51;79.27;98739.44;5077559;28;19932;-68
2022/12/14 11:17:28;;;;;;;;;;;;;;;-3.56;79.41;98734.69;5078738;28;19934;-68
2022/12/14 11:20:02;;;;;;;;;;;;;;;-3.53;79.68;98740.66;5076960;28;19928;-68
2022/12/14 11:22:41;;;;;;;;;;;;;;;-3.60;79.54;98754.03;5077470;28;19928;-68
2022/12/14 11:25:24;;;;;;;;;;;;;;;-3.78;80.08;98749.31;5056421;28;19937;-67
2022/12/14 11:27:51;;;;;;;;;;;;;;;-3.86;81.02;98756.53;5075810;28;19934;-68
2022/12/14 11:30:17;;;;;;;;;;;;;;;-3.91;81.72;98777.66;5075925;28;20139;-68
2022/12/14 11:32:45;;;;;;;;;;;;;;;-3.94;82.89;98778.09;5075006;28;19928;-68
2022/12/14 11:35:14;;;;;;;;;;;;;;;-3.89;84.74;98785.50;5077390;28;20011;-68
2022/12/14 11:37:40;;;;;;;;;;;;;;;-3.89;85.44;98804.19;5078073;28;19928;-68
2022/12/14 11:40:17;;;;;;;;;;;;;;;-3.87;85.59;98792.28;5081052;28;19928;-68
2022/12/14 11:42:46;;;;;;;;;;;;;;;-3.94;85.18;98812.00;5078794;28;20395;-68
2022/12/14 11:45:27;;;;;;;;;;;;;;;-4.07;85.27;98808.28;5085654;28;20324;-68
2022/12/14 11:48:09;;;;;;;;;;;;;;;-4.09;85.71;98844.22;5084659;28;19928;-68
2022/12/14 11:50:34;;;;;;;;;;;;;;;-4.11;84.38;98838.25;5084641;28;19935;-68
2022/12/14 11:53:02;;;;;;;;;;;;;;;-4.19;83.35;98842.78;5084076;28;20330;-68
2022/12/14 11:55:29;;;;;;;;;;;;;;;-4.20;83.25;98843.81;5081094;28;19928;-68
2022/12/14 11:57:57;;;;;;;;;;;;;;;-4.08;82.28;98872.56;5062868;28;19928;-69
2022/12/14 12:00:25;;;;;;;;;;;;;;;-4.09;81.55;98873.59;5079192;28;20022;-68
2022/12/14 12:02:56;;;;;;;;;;;;;;;-4.07;80.42;98883.06;5081306;28;19936;-68
2022/12/14 12:05:22;;;;;;;;;;;;;;;-4.08;80.14;98878.75;5084015;28;20390;-68
2022/12/14 12:07:51;;;;;;;;;;;;;;;-4.03;79.87;98894.16;5080668;28;19928;-68
2022/12/14 12:10:19;;;;;;;;;;;;;;;-3.94;78.77;98897.47;5079643;28;19932;-68
2022/12/14 12:12:47;;;;;;;;;;;;;;;-3.85;77.85;98896.25;5079698;28;19978;-68
2022/12/14 12:15:16;;;;;;;;;;;;;;;-3.78;77.60;98913.13;5080525;28;20042;-68
2022/12/14 12:17:45;;;;;;;;;;;;;;;-3.72;77.48;98903.47;5081673;28;19935;-68
2022/12/14 12:20:19;;;;;;;;;;;;;;;-3.81;78.20;98932.25;5080559;28;20661;-68
2022/12/14 12:22:48;;;;;;;;;;;;;;;-4.05;78.26;98925.59;5083173;28;19943;-68
2022/12/14 12:25:16;;;;;;;;;;;;;;;-4.20;78.25;98945.25;5080580;28;19932;-69
2022/12/14 12:27:42;;;;;;;;;;;;;;;-4.31;78.90;98949.31;5080793;28;19932;-68
2022/12/14 12:30:18;;;;;;;;;;;;;;;-4.39;79.15;98952.16;5063389;28;20387;-68
2022/12/14 12:32:48;;;;;;;;;;;;;;;-4.50;79.53;98969.56;5081827;28;19950;-66
2022/12/14 12:35:15;;;;;;;;;;;;;;;-4.59;79.96;98968.91;5082809;28;19932;-66
2022/12/14 12:37:44;;;;;;;;;;;;;;;-4.67;79.86;98977.03;5083608;28;20488;-66
2022/12/14 12:40:12;;;;;;;;;;;;;;;-4.73;79.92;98981.31;5083597;28;19928;-66
2022/12/14 12:42:42;;;;;;;;;;;;;;;-4.79;79.88;98991.94;5085400;28;19932;-68
2022/12/14 12:45:13;;;;;;;;;;;;;;;-4.89;79.49;98994.94;5085386;28;19928;-68
2022/12/14 12:47:42;;;;;;;;;;;;;;;-4.96;79.54;99002.06;5083054;28;20357;-66
2022/12/14 12:50:13;;;;;;;;;;;;;;;-5.03;79.93;99008.16;5083987;28;20001;-66
2022/12/14 12:52:44;;;;;;;;;;;;;;;-5.08;80.26;99020.41;5081241;28;19928;-66
2022/12/14 12:55:14;;;;;;;;;;;;;;;-5.13;80.03;99018.34;5085063;28;20304;-66
2022/12/14 12:57:42;;;;;;;;;;;;;;;-5.19;79.96;99025.25;5084883;28;19932;-66
2022/12/14 13:00:13;;;;;;;;;;;;;;;-5.19;79.96;99035.94;5077272;28;19932;-67
2022/12/14 13:02:43;;;;;;;;;;;;;;;-5.23;79.93;99041.81;5083706;28;19927;-67